sensor_id;sensor_type;location;lat;lon;timestamp;pressure;altitude;pressure_sealevel;temperature;humidity
19086;BME280;9675;51.538;6.728;2022-11-13T00:00:57;102388.06;;;11.33;100.00
19086;BME280;9675;51.538;6.728;2022-11-13T00:03:28;102387.94;;;11.32;100.00
19086;BME280;9675;51.538;6.728;2022-11-13T00:05:58;102384.34;;;11.30;100.00
19086;BME280;9675;51.538;6.728;2022-11-13T00:08:26;102379.00;;;11.27;100.00
19086;BME280;9675;51.538;6.728;2022-11-13T00:11:00;102374.53;;;11.24;100.00
19086;BME280;9675;51.538;6.728;2022-11-13T00:13:28;102372.59;;;11.22;100.00
19086;BME280;9675;51.538;6.728;2022-11-13T00:16:00;102372.50;;;11.20;100.00
19086;BME280;9675;51.538;6.728;2022-11-13T00:18:29;102374.09;;;11.18;100.00
19086;BME280;9675;51.538;6.728;2022-11-13T00:20:57;102376.53;;;11.17;100.00
19086;BME280;9675;51.538;6.728;2022-11-13T00:23:24;102365.78;;;11.11;100.00
19086;BME280;9675;51.538;6.728;2022-11-13T00:25:51;102373.41;;;11.09;100.00
19086;BME280;9675;51.538;6.728;2022-11-13T00:28:18;102368.03;;;11.06;100.00
19086;BME280;9675;51.538;6.728;2022-11-13T00:30:45;102368.03;;;11.06;100.00
19086;BME280;9675;51.538;6.728;2022-11-13T00:33:13;102371.41;;;11.05;100.00
19086;BME280;9675;51.538;6.728;2022-11-13T00:35:41;102366.03;;;11.02;100.00
19086;BME280;9675;51.538;6.728;2022-11-13T00:38:08;102361.53;;;10.99;100.00
19086;BME280;9675;51.538;6.728;2022-11-13T00:40:35;102357.06;;;10.97;100.00
19086;BME280;9675;51.538;6.728;2022-11-13T00:43:02;102355.94;;;10.93;100.00
19086;BME280;9675;51.538;6.728;2022-11-13T00:45:29;102358.44;;;10.92;100.00
19086;BME280;9675;51.538;6.728;2022-11-13T00:47:56;102360.75;;;10.89;100.00
19086;BME280;9675;51.538;6.728;2022-11-13T00:50:23;102364.94;;;10.87;100.00
19086;BME280;9675;51.538;6.728;2022-11-13T00:52:51;102354.38;;;10.84;100.00
19086;BME280;9675;51.538;6.728;2022-11-13T00:55:18;102345.41;;;10.79;100.00
19086;BME280;9675;51.538;6.728;2022-11-13T00:57:45;102347.91;;;10.77;100.00
19086;BME280;9675;51.538;6.728;2022-11-13T01:00:13;102348.69;;;10.76;100.00
19086;BME280;9675;51.538;6.728;2022-11-13T01:02:40;102349.34;;;10.74;100.00
19086;BME280;9675;51.538;6.728;2022-11-13T01:05:07;102340.63;;;10.72;100.00
19086;BME280;9675;51.538;6.728;2022-11-13T01:07:35;102339.59;;;10.70;100.00
19086;BME280;9675;51.538;6.728;2022-11-13T01:10:06;102340.28;;;10.67;100.00
19086;BME280;9675;51.538;6.728;2022-11-13T01:12:33;102344.31;;;10.63;100.00
19086;BME280;9675;51.538;6.728;2022-11-13T01:15:00;102347.66;;;10.62;100.00
19086;BME280;9675;51.538;6.728;2022-11-13T01:17:28;102338.03;;;10.60;100.00
19086;BME280;9675;51.538;6.728;2022-11-13T01:19:55;102350.81;;;10.58;100.00
19086;BME280;9675;51.538;6.728;2022-11-13T01:22:22;102350.59;;;10.55;100.00
19086;BME280;9675;51.538;6.728;2022-11-13T01:24:49;102347.91;;;10.54;100.00
19086;BME280;9675;51.538;6.728;2022-11-13T01:27:17;102346.00;;;10.51;100.00
19086;BME280;9675;51.538;6.728;2022-11-13T01:29:44;102351.16;;;10.51;100.00
19086;BME280;9675;51.538;6.728;2022-11-13T01:32:11;102335.47;;;10.48;100.00
19086;BME280;9675;51.538;6.728;2022-11-13T01:34:38;102335.34;;;10.47;100.00
19086;BME280;9675;51.538;6.728;2022-11-13T01:37:05;102329.06;;;10.43;100.00
19086;BME280;9675;51.538;6.728;2022-11-13T01:39:32;102332.44;;;10.42;100.00
19086;BME280;9675;51.538;6.728;2022-11-13T01:42:00;102324.50;;;10.39;100.00
19086;BME280;9675;51.538;6.728;2022-11-13T01:44:47;102319.22;;;10.38;100.00
19086;BME280;9675;51.538;6.728;2022-11-13T01:47:16;102315.66;;;10.36;100.00
19086;BME280;9675;51.538;6.728;2022-11-13T01:49:45;102308.59;;;10.33;100.00
19086;BME280;9675;51.538;6.728;2022-11-13T01:52:16;102294.69;;;10.31;100.00
19086;BME280;9675;51.538;6.728;2022-11-13T01:54:50;102303.88;;;10.28;100.00
19086;BME280;9675;51.538;6.728;2022-11-13T01:57:19;102295.25;;;10.27;100.00
19086;BME280;9675;51.538;6.728;2022-11-13T01:59:52;102307.22;;;10.27;100.00
19086;BME280;9675;51.538;6.728;2022-11-13T02:02:20;102294.13;;;10.23;100.00
19086;BME280;9675;51.538;6.728;2022-11-13T02:04:48;102291.44;;;10.22;100.00
19086;BME280;9675;51.538;6.728;2022-11-13T02:07:19;102292.22;;;10.21;100.00
19086;BME280;9675;51.538;6.728;2022-11-13T02:09:50;102286.09;;;10.19;100.00
19086;BME280;9675;51.538;6.728;2022-11-13T02:12:26;102290.31;;;10.18;100.00
19086;BME280;9675;51.538;6.728;2022-11-13T02:14:57;102288.41;;;10.16;100.00
19086;BME280;9675;51.538;6.728;2022-11-13T02:17:30;102281.34;;;10.13;100.00
19086;BME280;9675;51.538;6.728;2022-11-13T02:20:01;102270.91;;;10.12;100.00
19086;BME280;9675;51.538;6.728;2022-11-13T02:22:37;102275.06;;;10.10;100.00
19086;BME280;9675;51.538;6.728;2022-11-13T02:25:12;102283.56;;;10.09;100.00
19086;BME280;9675;51.538;6.728;2022-11-13T02:27:43;102268.78;;;10.06;100.00
19086;BME280;9675;51.538;6.728;2022-11-13T02:30:18;102268.69;;;10.05;100.00
19086;BME280;9675;51.538;6.728;2022-11-13T02:32:50;102272.03;;;10.04;100.00
19086;BME280;9675;51.538;6.728;2022-11-13T02:35:21;102265.88;;;10.02;100.00
19086;BME280;9675;51.538;6.728;2022-11-13T02:37:50;102266.00;;;10.03;100.00
19086;BME280;9675;51.538;6.728;2022-11-13T02:40:19;102273.47;;;10.00;100.00
19086;BME280;9675;51.538;6.728;2022-11-13T02:42:46;102271.72;;;9.99;100.00
19086;BME280;9675;51.538;6.728;2022-11-13T02:45:13;102269.00;;;9.98;100.00
19086;BME280;9675;51.538;6.728;2022-11-13T02:47:40;102264.75;;;9.98;100.00
19086;BME280;9675;51.538;6.728;2022-11-13T02:50:09;102265.66;;;9.99;100.00
19086;BME280;9675;51.538;6.728;2022-11-13T02:52:36;102265.41;;;9.96;100.00
19086;BME280;9675;51.538;6.728;2022-11-13T02:55:04;102261.06;;;9.95;100.00
19086;BME280;9675;51.538;6.728;2022-11-13T02:57:33;102253.34;;;9.95;100.00
19086;BME280;9675;51.538;6.728;2022-11-13T03:00:00;102263.41;;;9.92;100.00
19086;BME280;9675;51.538;6.728;2022-11-13T03:02:27;102263.28;;;9.90;100.00
19086;BME280;9675;51.538;6.728;2022-11-13T03:04:54;102253.78;;;9.89;100.00
19086;BME280;9675;51.538;6.728;2022-11-13T03:07:21;102253.66;;;9.88;100.00
19086;BME280;9675;51.538;6.728;2022-11-13T03:09:48;102245.69;;;9.85;100.00
19086;BME280;9675;51.538;6.728;2022-11-13T03:12:15;102252.66;;;9.86;100.00
19086;BME280;9675;51.538;6.728;2022-11-13T03:14:44;102242.00;;;9.81;100.00
19086;BME280;9675;51.538;6.728;2022-11-13T03:17:11;102244.59;;;9.81;100.00
19086;BME280;9675;51.538;6.728;2022-11-13T03:19:38;102243.69;;;9.80;100.00
19086;BME280;9675;51.538;6.728;2022-11-13T03:22:05;102237.66;;;9.80;100.00
19086;BME280;9675;51.538;6.728;2022-11-13T03:24:32;102235.75;;;9.77;100.00
19086;BME280;9675;51.538;6.728;2022-11-13T03:26:59;102231.25;;;9.75;100.00
19086;BME280;9675;51.538;6.728;2022-11-13T03:29:26;102232.84;;;9.73;100.00
19086;BME280;9675;51.538;6.728;2022-11-13T03:31:55;102229.38;;;9.72;100.00
19086;BME280;9675;51.538;6.728;2022-11-13T03:34:22;102236.06;;;9.70;100.00
19086;BME280;9675;51.538;6.728;2022-11-13T03:36:49;102228.91;;;9.66;100.00
19086;BME280;9675;51.538;6.728;2022-11-13T03:39:16;102238.16;;;9.64;100.00
19086;BME280;9675;51.538;6.728;2022-11-13T03:41:43;102232.13;;;9.64;100.00
19086;BME280;9675;51.538;6.728;2022-11-13T03:44:10;102228.69;;;9.63;100.00
19086;BME280;9675;51.538;6.728;2022-11-13T03:46:37;102226.91;;;9.62;100.00
19086;BME280;9675;51.538;6.728;2022-11-13T03:49:05;102225.09;;;9.61;100.00
19086;BME280;9675;51.538;6.728;2022-11-13T03:51:32;102234.34;;;9.59;100.00
19086;BME280;9675;51.538;6.728;2022-11-13T03:54:00;102231.78;;;9.59;100.00
19086;BME280;9675;51.538;6.728;2022-11-13T03:56:27;102225.66;;;9.57;100.00
19086;BME280;9675;51.538;6.728;2022-11-13T03:58:54;102222.81;;;9.54;100.00
19086;BME280;9675;51.538;6.728;2022-11-13T04:01:21;102220.16;;;9.53;100.00
19086;BME280;9675;51.538;6.728;2022-11-13T04:03:48;102221.84;;;9.52;100.00
19086;BME280;9675;51.538;6.728;2022-11-13T04:06:16;102219.25;;;9.52;100.00
19086;BME280;9675;51.538;6.728;2022-11-13T04:08:43;102221.50;;;9.48;100.00
19086;BME280;9675;51.538;6.728;2022-11-13T04:11:12;102213.66;;;9.46;100.00
19086;BME280;9675;51.538;6.728;2022-11-13T04:13:39;102217.00;;;9.45;100.00
19086;BME280;9675;51.538;6.728;2022-11-13T04:16:06;102213.41;;;9.43;100.00
19086;BME280;9675;51.538;6.728;2022-11-13T04:18:34;102212.53;;;9.43;100.00
19086;BME280;9675;51.538;6.728;2022-11-13T04:21:02;102210.63;;;9.40;100.00
19086;BME280;9675;51.538;6.728;2022-11-13T04:23:31;102204.44;;;9.38;100.00
19086;BME280;9675;51.538;6.728;2022-11-13T04:25:58;102206.03;;;9.36;100.00
19086;BME280;9675;51.538;6.728;2022-11-13T04:28:25;102209.38;;;9.35;100.00
19086;BME280;9675;51.538;6.728;2022-11-13T04:30:53;102204.00;;;9.32;100.00
19086;BME280;9675;51.538;6.728;2022-11-13T04:33:20;102199.63;;;9.31;100.00
19086;BME280;9675;51.538;6.728;2022-11-13T04:35:48;102198.50;;;9.27;100.00
19086;BME280;9675;51.538;6.728;2022-11-13T04:38:15;102191.47;;;9.25;100.00
19086;BME280;9675;51.538;6.728;2022-11-13T04:40:43;102195.81;;;9.26;100.00
19086;BME280;9675;51.538;6.728;2022-11-13T04:43:10;102203.28;;;9.23;100.00
19086;BME280;9675;51.538;6.728;2022-11-13T04:45:36;102200.72;;;9.23;100.00
19086;BME280;9675;51.538;6.728;2022-11-13T04:48:04;102197.91;;;9.20;100.00
19086;BME280;9675;51.538;6.728;2022-11-13T04:50:31;102198.56;;;9.17;100.00
19086;BME280;9675;51.538;6.728;2022-11-13T04:52:58;102205.28;;;9.15;100.00
19086;BME280;9675;51.538;6.728;2022-11-13T04:55:25;102202.59;;;9.14;100.00
19086;BME280;9675;51.538;6.728;2022-11-13T04:57:54;102202.59;;;9.14;100.00
19086;BME280;9675;51.538;6.728;2022-11-13T05:00:21;102195.44;;;9.10;100.00
19086;BME280;9675;51.538;6.728;2022-11-13T05:02:48;102199.31;;;9.05;100.00
19086;BME280;9675;51.538;6.728;2022-11-13T05:05:16;102192.50;;;9.05;100.00
19086;BME280;9675;51.538;6.728;2022-11-13T05:07:43;102189.81;;;9.04;100.00
19086;BME280;9675;51.538;6.728;2022-11-13T05:10:10;102190.50;;;9.01;100.00
19086;BME280;9675;51.538;6.728;2022-11-13T05:12:37;102198.06;;;9.00;100.00
19086;BME280;9675;51.538;6.728;2022-11-13T05:15:07;102193.56;;;8.97;100.00
19086;BME280;9675;51.538;6.728;2022-11-13T05:17:34;102183.72;;;8.91;100.00
19086;BME280;9675;51.538;6.728;2022-11-13T05:20:01;102188.09;;;8.92;100.00
19086;BME280;9675;51.538;6.728;2022-11-13T05:22:28;102187.09;;;8.90;100.00
19086;BME280;9675;51.538;6.728;2022-11-13T05:24:55;102186.06;;;8.88;100.00
19086;BME280;9675;51.538;6.728;2022-11-13T05:27:23;102182.47;;;8.86;100.00
19086;BME280;9675;51.538;6.728;2022-11-13T05:29:50;102186.72;;;8.86;100.00
19086;BME280;9675;51.538;6.728;2022-11-13T05:32:19;102186.59;;;8.84;100.00
19086;BME280;9675;51.538;6.728;2022-11-13T05:34:46;102177.66;;;8.79;100.00
19086;BME280;9675;51.538;6.728;2022-11-13T05:37:13;102172.50;;;8.79;100.00
19086;BME280;9675;51.538;6.728;2022-11-13T05:39:40;102168.91;;;8.77;100.00
19086;BME280;9675;51.538;6.728;2022-11-13T05:42:07;102167.13;;;8.76;100.00
19086;BME280;9675;51.538;6.728;2022-11-13T05:44:34;102162.66;;;8.74;100.00
19086;BME280;9675;51.538;6.728;2022-11-13T05:47:01;102155.72;;;8.73;100.00
19086;BME280;9675;51.538;6.728;2022-11-13T05:49:30;102154.69;;;8.71;100.00
19086;BME280;9675;51.538;6.728;2022-11-13T05:51:57;102147.66;;;8.68;100.00
19086;BME280;9675;51.538;6.728;2022-11-13T05:54:24;102149.22;;;8.66;100.00
19086;BME280;9675;51.538;6.728;2022-11-13T05:56:51;102150.78;;;8.64;100.00
19086;BME280;9675;51.538;6.728;2022-11-13T05:59:18;102147.19;;;8.62;100.00
19086;BME280;9675;51.538;6.728;2022-11-13T06:01:45;102143.59;;;8.60;100.00
19086;BME280;9675;51.538;6.728;2022-11-13T06:04:12;102144.25;;;8.58;100.00
19086;BME280;9675;51.538;6.728;2022-11-13T06:06:40;102138.00;;;8.54;100.00
19086;BME280;9675;51.538;6.728;2022-11-13T06:09:11;102133.63;;;8.53;100.00
19086;BME280;9675;51.538;6.728;2022-11-13T06:11:39;102136.97;;;8.52;100.00
19086;BME280;9675;51.538;6.728;2022-11-13T06:14:06;102127.47;;;8.51;100.00
19086;BME280;9675;51.538;6.728;2022-11-13T06:16:35;102133.28;;;8.48;100.00
19086;BME280;9675;51.538;6.728;2022-11-13T06:19:06;102134.81;;;8.46;100.00
19086;BME280;9675;51.538;6.728;2022-11-13T06:21:37;102124.31;;;8.43;100.00
19086;BME280;9675;51.538;6.728;2022-11-13T06:24:08;102126.91;;;8.43;100.00
19086;BME280;9675;51.538;6.728;2022-11-13T06:26:36;102119.84;;;8.41;100.00
19086;BME280;9675;51.538;6.728;2022-11-13T06:29:06;102134.25;;;8.39;100.00
19086;BME280;9675;51.538;6.728;2022-11-13T06:31:35;102124.59;;;8.36;100.00
19086;BME280;9675;51.538;6.728;2022-11-13T06:34:04;102130.50;;;8.35;100.00
19086;BME280;9675;51.538;6.728;2022-11-13T06:36:34;102125.16;;;8.32;100.00
19086;BME280;9675;51.538;6.728;2022-11-13T06:39:06;102120.78;;;8.31;100.00
19086;BME280;9675;51.538;6.728;2022-11-13T06:41:34;102118.84;;;8.29;100.00
19086;BME280;9675;51.538;6.728;2022-11-13T06:44:01;102118.59;;;8.26;100.00
19086;BME280;9675;51.538;6.728;2022-11-13T06:46:29;102118.59;;;8.26;100.00
19086;BME280;9675;51.538;6.728;2022-11-13T06:48:56;102110.53;;;8.21;100.00
19086;BME280;9675;51.538;6.728;2022-11-13T06:51:26;102117.47;;;8.22;100.00
19086;BME280;9675;51.538;6.728;2022-11-13T06:53:54;102118.88;;;8.19;100.00
19086;BME280;9675;51.538;6.728;2022-11-13T06:56:23;102109.41;;;8.18;100.00
19086;BME280;9675;51.538;6.728;2022-11-13T06:58:51;102110.94;;;8.16;100.00
19086;BME280;9675;51.538;6.728;2022-11-13T07:01:21;102104.91;;;8.15;100.00
19086;BME280;9675;51.538;6.728;2022-11-13T07:03:49;102109.91;;;8.13;100.00
19086;BME280;9675;51.538;6.728;2022-11-13T07:06:19;102102.88;;;8.11;100.00
19086;BME280;9675;51.538;6.728;2022-11-13T07:08:46;102102.75;;;8.09;100.00
19086;BME280;9675;51.538;6.728;2022-11-13T07:11:15;102104.44;;;8.09;100.00
19086;BME280;9675;51.538;6.728;2022-11-13T07:13:45;102097.28;;;8.05;100.00
19086;BME280;9675;51.538;6.728;2022-11-13T07:16:13;102091.25;;;8.04;100.00
19086;BME280;9675;51.538;6.728;2022-11-13T07:18:41;102096.28;;;8.03;100.00
19086;BME280;9675;51.538;6.728;2022-11-13T07:21:10;102104.84;;;8.03;100.00
19086;BME280;9675;51.538;6.728;2022-11-13T07:23:38;102097.81;;;8.01;100.00
19086;BME280;9675;51.538;6.728;2022-11-13T07:26:08;102097.69;;;7.99;100.00
19086;BME280;9675;51.538;6.728;2022-11-13T07:28:36;102094.97;;;7.98;100.00
19086;BME280;9675;51.538;6.728;2022-11-13T07:31:06;102094.88;;;7.96;100.00
19086;BME280;9675;51.538;6.728;2022-11-13T07:33:33;102086.16;;;7.94;100.00
19086;BME280;9675;51.538;6.728;2022-11-13T07:36:00;102089.50;;;7.93;100.00
19086;BME280;9675;51.538;6.728;2022-11-13T07:38:27;102086.69;;;7.90;100.00
19086;BME280;9675;51.538;6.728;2022-11-13T07:40:56;102082.59;;;7.92;100.00
19086;BME280;9675;51.538;6.728;2022-11-13T07:43:24;102084.13;;;7.90;100.00
19086;BME280;9675;51.538;6.728;2022-11-13T07:45:51;102089.13;;;7.89;100.00
19086;BME280;9675;51.538;6.728;2022-11-13T07:48:22;102086.47;;;7.87;100.00
19086;BME280;9675;51.538;6.728;2022-11-13T07:50:50;102082.88;;;7.85;100.00
19086;BME280;9675;51.538;6.728;2022-11-13T07:53:18;102075.94;;;7.84;100.00
19086;BME280;9675;51.538;6.728;2022-11-13T07:55:46;102073.91;;;7.80;100.00
19086;BME280;9675;51.538;6.728;2022-11-13T07:58:14;102074.94;;;7.82;100.00
19086;BME280;9675;51.538;6.728;2022-11-13T08:00:41;102071.22;;;7.79;100.00
19086;BME280;9675;51.538;6.728;2022-11-13T08:03:12;102059.44;;;7.81;100.00
19086;BME280;9675;51.538;6.728;2022-11-13T08:05:42;102073.91;;;7.80;100.00
19086;BME280;9675;51.538;6.728;2022-11-13T08:08:11;102068.78;;;7.80;100.00
19086;BME280;9675;51.538;6.728;2022-11-13T08:10:38;102066.97;;;7.79;100.00
19086;BME280;9675;51.538;6.728;2022-11-13T08:13:08;102065.19;;;7.78;100.00
19086;BME280;9675;51.538;6.728;2022-11-13T08:15:35;102064.41;;;7.79;100.00
19086;BME280;9675;51.538;6.728;2022-11-13T08:18:04;102074.81;;;7.81;100.00
19086;BME280;9675;51.538;6.728;2022-11-13T08:20:31;102060.06;;;7.78;100.00
19086;BME280;9675;51.538;6.728;2022-11-13T08:23:02;102066.22;;;7.80;100.00
19086;BME280;9675;51.538;6.728;2022-11-13T08:25:30;102062.88;;;7.81;100.00
19086;BME280;9675;51.538;6.728;2022-11-13T08:27:58;102068.13;;;7.83;100.00
19086;BME280;9675;51.538;6.728;2022-11-13T08:30:27;102060.31;;;7.81;100.00
19086;BME280;9675;51.538;6.728;2022-11-13T08:32:54;102062.88;;;7.81;100.00
19086;BME280;9675;51.538;6.728;2022-11-13T08:35:22;102063.66;;;7.80;100.00
19086;BME280;9675;51.538;6.728;2022-11-13T08:37:49;102059.16;;;7.78;100.00
19086;BME280;9675;51.538;6.728;2022-11-13T08:40:18;102061.50;;;7.75;100.00
19086;BME280;9675;51.538;6.728;2022-11-13T08:42:45;102059.56;;;7.72;100.00
19086;BME280;9675;51.538;6.728;2022-11-13T08:45:12;102056.00;;;7.70;100.00
19086;BME280;9675;51.538;6.728;2022-11-13T08:47:39;102047.28;;;7.68;100.00
19086;BME280;9675;51.538;6.728;2022-11-13T08:50:07;102045.25;;;7.64;100.00
19086;BME280;9675;51.538;6.728;2022-11-13T08:52:34;102044.34;;;7.63;100.00
19086;BME280;9675;51.538;6.728;2022-11-13T08:55:01;102035.75;;;7.63;100.00
19086;BME280;9675;51.538;6.728;2022-11-13T08:57:30;102038.31;;;7.63;100.00
19086;BME280;9675;51.538;6.728;2022-11-13T08:59:57;102036.53;;;7.62;100.00
19086;BME280;9675;51.538;6.728;2022-11-13T09:02:23;102025.50;;;7.63;100.00
19086;BME280;9675;51.538;6.728;2022-11-13T09:04:51;102020.66;;;7.66;100.00
19086;BME280;9675;51.538;6.728;2022-11-13T09:07:18;102017.28;;;7.67;100.00
19086;BME280;9675;51.538;6.728;2022-11-13T09:09:45;102016.53;;;7.68;100.00
19086;BME280;9675;51.538;6.728;2022-11-13T09:12:12;102009.84;;;7.70;100.00
19086;BME280;9675;51.538;6.728;2022-11-13T09:14:41;102013.41;;;7.72;100.00
19086;BME280;9675;51.538;6.728;2022-11-13T09:17:08;102012.91;;;7.76;100.00
19086;BME280;9675;51.538;6.728;2022-11-13T09:19:35;102010.56;;;7.79;100.00
19086;BME280;9675;51.538;6.728;2022-11-13T09:22:02;102005.72;;;7.82;100.00
19086;BME280;9675;51.538;6.728;2022-11-13T09:24:29;102001.03;;;7.88;100.00
19086;BME280;9675;51.538;6.728;2022-11-13T09:26:56;101996.28;;;7.93;100.00
19086;BME280;9675;51.538;6.728;2022-11-13T09:29:23;101999.22;;;7.97;100.00
19086;BME280;9675;51.538;6.728;2022-11-13T09:31:55;101998.91;;;8.04;100.00
19086;BME280;9675;51.538;6.728;2022-11-13T09:34:24;101992.47;;;8.09;100.00
19086;BME280;9675;51.538;6.728;2022-11-13T09:36:52;101994.88;;;8.18;100.00
19086;BME280;9675;51.538;6.728;2022-11-13T09:39:20;101998.25;;;8.29;100.00
19086;BME280;9675;51.538;6.728;2022-11-13T09:41:51;101994.63;;;8.37;100.00
19086;BME280;9675;51.538;6.728;2022-11-13T09:44:29;101995.31;;;8.46;100.00
19086;BME280;9675;51.538;6.728;2022-11-13T09:47:08;101992.94;;;8.59;100.00
19086;BME280;9675;51.538;6.728;2022-11-13T09:49:44;102002.34;;;8.70;100.00
19086;BME280;9675;51.538;6.728;2022-11-13T09:52:18;101999.88;;;8.83;100.00
19086;BME280;9675;51.538;6.728;2022-11-13T09:54:46;102005.84;;;8.94;100.00
19086;BME280;9675;51.538;6.728;2022-11-13T09:57:37;101998.16;;;9.06;100.00
19086;BME280;9675;51.538;6.728;2022-11-13T10:00:12;102000.81;;;9.19;100.00
19086;BME280;9675;51.538;6.728;2022-11-13T10:02:54;101991.44;;;9.31;100.00
19086;BME280;9675;51.538;6.728;2022-11-13T10:05:33;101982.84;;;9.42;100.00
19086;BME280;9675;51.538;6.728;2022-11-13T10:08:12;101984.50;;;9.53;100.00
19086;BME280;9675;51.538;6.728;2022-11-13T10:10:48;101977.78;;;9.67;100.00
19086;BME280;9675;51.538;6.728;2022-11-13T10:13:21;101974.94;;;9.75;100.00
19086;BME280;9675;51.538;6.728;2022-11-13T10:15:54;101981.94;;;9.90;100.00
19086;BME280;9675;51.538;6.728;2022-11-13T10:18:34;101975.88;;;10.01;100.00
19086;BME280;9675;51.538;6.728;2022-11-13T10:21:13;101981.00;;;10.12;100.00
19086;BME280;9675;51.538;6.728;2022-11-13T10:23:53;101974.16;;;10.25;100.00
19086;BME280;9675;51.538;6.728;2022-11-13T10:26:27;101979.16;;;10.35;100.00
19086;BME280;9675;51.538;6.728;2022-11-13T10:29:00;101978.22;;;10.46;100.00
19086;BME280;9675;51.538;6.728;2022-11-13T10:31:42;101967.81;;;10.57;100.00
19086;BME280;9675;51.538;6.728;2022-11-13T10:34:13;101969.34;;;10.67;100.00
19086;BME280;9675;51.538;6.728;2022-11-13T10:36:54;101969.25;;;10.79;100.00
19086;BME280;9675;51.538;6.728;2022-11-13T10:39:23;101973.44;;;10.90;100.00
19086;BME280;9675;51.538;6.728;2022-11-13T10:41:52;101970.69;;;11.00;100.00
19086;BME280;9675;51.538;6.728;2022-11-13T10:44:24;101964.53;;;11.11;100.00
19086;BME280;9675;51.538;6.728;2022-11-13T10:47:03;101967.13;;;11.24;100.00
19086;BME280;9675;51.538;6.728;2022-11-13T10:49:31;101961.78;;;11.34;99.51
19086;BME280;9675;51.538;6.728;2022-11-13T10:51:59;101961.75;;;11.47;97.28
19086;BME280;9675;51.538;6.728;2022-11-13T10:54:29;101950.22;;;11.56;95.14
19086;BME280;9675;51.538;6.728;2022-11-13T10:56:59;101955.19;;;11.66;93.46
19086;BME280;9675;51.538;6.728;2022-11-13T10:59:38;101957.66;;;11.77;92.31
19086;BME280;9675;51.538;6.728;2022-11-13T11:02:17;101947.22;;;11.89;90.50
19086;BME280;9675;51.538;6.728;2022-11-13T11:04:45;101941.03;;;12.00;89.89
19086;BME280;9675;51.538;6.728;2022-11-13T11:07:15;101944.25;;;12.11;89.21
19086;BME280;9675;51.538;6.728;2022-11-13T11:09:44;101930.22;;;12.20;88.90
19086;BME280;9675;51.538;6.728;2022-11-13T11:12:16;101929.84;;;12.29;86.20
19086;BME280;9675;51.538;6.728;2022-11-13T11:15:08;101928.81;;;12.40;84.61
19086;BME280;9675;51.538;6.728;2022-11-13T11:17:47;101920.91;;;12.52;85.36
19086;BME280;9675;51.538;6.728;2022-11-13T11:20:27;101908.53;;;12.61;82.95
19086;BME280;9675;51.538;6.728;2022-11-13T11:23:15;101902.28;;;12.72;83.16
19086;BME280;9675;51.538;6.728;2022-11-13T11:25:53;101895.84;;;12.80;81.74
19086;BME280;9675;51.538;6.728;2022-11-13T11:28:31;101903.50;;;12.93;81.73
19086;BME280;9675;51.538;6.728;2022-11-13T11:31:11;101898.16;;;13.05;80.00
19086;BME280;9675;51.538;6.728;2022-11-13T11:33:50;101897.81;;;13.13;78.47
19086;BME280;9675;51.538;6.728;2022-11-13T11:36:29;101894.28;;;13.28;79.38
19086;BME280;9675;51.538;6.728;2022-11-13T11:39:08;101885.41;;;13.39;79.17
19086;BME280;9675;51.538;6.728;2022-11-13T11:41:47;101889.56;;;13.51;79.28
19086;BME280;9675;51.538;6.728;2022-11-13T11:44:25;101876.72;;;14.01;69.22
19086;BME280;9675;51.538;6.728;2022-11-13T11:46:55;101873.88;;;14.63;62.99
19086;BME280;9675;51.538;6.728;2022-11-13T11:49:25;101872.84;;;15.13;60.50
19086;BME280;9675;51.538;6.728;2022-11-13T11:52:07;101870.66;;;15.57;59.37
19086;BME280;9675;51.538;6.728;2022-11-13T11:54:42;101868.72;;;15.92;57.71
19086;BME280;9675;51.538;6.728;2022-11-13T11:57:32;101854.53;;;16.24;57.47
19086;BME280;9675;51.538;6.728;2022-11-13T12:00:05;101848.94;;;16.54;55.75
19086;BME280;9675;51.538;6.728;2022-11-13T12:03:03;101851.06;;;16.84;54.20
19086;BME280;9675;51.538;6.728;2022-11-13T12:05:45;101847.75;;;17.10;53.18
19086;BME280;9675;51.538;6.728;2022-11-13T12:08:28;101846.22;;;17.37;53.60
19086;BME280;9675;51.538;6.728;2022-11-13T12:11:13;101839.19;;;17.59;52.74
19086;BME280;9675;51.538;6.728;2022-11-13T12:13:52;101842.72;;;17.83;52.02
19086;BME280;9675;51.538;6.728;2022-11-13T12:16:34;101836.56;;;18.05;50.49
19086;BME280;9675;51.538;6.728;2022-11-13T12:19:11;101836.53;;;18.29;51.15
19086;BME280;9675;51.538;6.728;2022-11-13T12:21:51;101828.56;;;18.51;49.87
19086;BME280;9675;51.538;6.728;2022-11-13T12:24:44;101830.28;;;18.76;49.26
19086;BME280;9675;51.538;6.728;2022-11-13T12:27:26;101821.34;;;18.94;48.50
19086;BME280;9675;51.538;6.728;2022-11-13T12:30:10;101817.41;;;19.08;49.65
19086;BME280;9675;51.538;6.728;2022-11-13T12:33:21;101801.28;;;19.22;49.60
19086;BME280;9675;51.538;6.728;2022-11-13T12:35:53;101804.50;;;19.41;49.21
19086;BME280;9675;51.538;6.728;2022-11-13T12:38:34;101797.16;;;19.58;48.90
19086;BME280;9675;51.538;6.728;2022-11-13T12:41:16;101787.03;;;19.70;48.12
19086;BME280;9675;51.538;6.728;2022-11-13T12:44:21;101783.06;;;19.84;47.99
19086;BME280;9675;51.538;6.728;2022-11-13T12:46:50;101777.13;;;19.90;48.81
19086;BME280;9675;51.538;6.728;2022-11-13T12:49:30;101780.72;;;19.95;48.97
19086;BME280;9675;51.538;6.728;2022-11-13T12:52:01;101774.00;;;20.03;49.19
19086;BME280;9675;51.538;6.728;2022-11-13T12:54:31;101766.31;;;20.09;49.32
19086;BME280;9675;51.538;6.728;2022-11-13T12:57:18;101762.88;;;20.12;49.72
19086;BME280;9675;51.538;6.728;2022-11-13T12:59:49;101757.84;;;20.19;49.84
19086;BME280;9675;51.538;6.728;2022-11-13T13:02:37;101759.16;;;20.35;49.88
19086;BME280;9675;51.538;6.728;2022-11-13T13:05:19;101752.31;;;20.42;49.43
19086;BME280;9675;51.538;6.728;2022-11-13T13:08:27;101753.50;;;20.54;48.79
19086;BME280;9675;51.538;6.728;2022-11-13T13:11:12;101750.19;;;20.61;48.07
19086;BME280;9675;51.538;6.728;2022-11-13T13:13:51;101738.97;;;20.68;47.77
19086;BME280;9675;51.538;6.728;2022-11-13T13:16:24;101724.34;;;20.76;47.36